Time;durP1;ratioP1;P1;durP2;ratioP2;P2;SDS_P1;SDS_P2;PMS_P1;PMS_P2;Temp;Humidity;BMP_temperature;BMP_pressure;BME280_temperature;BME280_humidity;BME280_pressure;Samples;Min_cycle;Max_cycle;Signal;HPM_P1;HPM_P2
2021/05/01 07:01:40;;;;;;;48.35;32.95;;;;;;;8.56;81.99;98427.06;5285822;23;20049;-74
2021/05/01 07:04:12;;;;;;;47.95;31.38;;;;;;;8.01;81.94;98434.72;4879780;29;20093;-75
2021/05/01 07:06:38;;;;;;;48.35;32.55;;;;;;;8.03;81.85;98425.25;4879588;29;20033;-74
2021/05/01 07:09:05;;;;;;;46.10;31.55;;;;;;;8.17;81.74;98418.13;4879846;29;20419;-75
2021/05/01 07:11:31;;;;;;;45.72;30.98;;;;;;;8.08;81.36;98428.59;4879597;29;20037;-74
2021/05/01 07:13:57;;;;;;;43.67;31.35;;;;;;;8.34;81.24;98425.66;4933934;23;20005;-68
2021/05/01 07:16:23;;;;;;;45.88;31.63;;;;;;;8.34;80.55;98421.34;4879738;29;20446;-69
2021/05/01 07:18:49;;;;;;;43.20;30.90;;;;;;;8.34;79.93;98431.66;4879581;29;20021;-69
2021/05/01 07:21:15;;;;;;;43.90;30.35;;;;;;;8.90;78.34;98426.53;4879450;29;20542;-69
2021/05/01 07:23:41;;;;;;;40.42;28.58;;;;;;;8.83;77.44;98420.59;4879324;29;20060;-69
2021/05/01 07:26:08;;;;;;;41.50;28.25;;;;;;;9.26;78.01;98414.66;4879492;29;20512;-69
2021/05/01 07:28:38;;;;;;;44.55;30.50;;;;;;;9.05;77.54;98415.06;4879297;29;20032;-69
2021/05/01 07:31:05;;;;;;;;;;;;;;;9.02;76.91;98410.78;4879623;29;20478;-69
2021/05/01 07:33:53;;;;;;;40.42;27.30;;;;;;;8.95;77.49;98409.22;4879370;29;20004;-69
2021/05/01 07:36:27;;;;;;;40.90;27.08;;;;;;;8.59;78.01;98390.00;4877962;29;20056;-69
2021/05/01 07:38:53;;;;;;;35.70;26.10;;;;;;;8.93;75.47;98385.97;4879169;29;20065;-69
2021/05/01 07:41:22;;;;;;;39.47;27.35;;;;;;;9.67;74.21;98380.25;4879101;29;20025;-69
2021/05/01 07:43:49;;;;;;;38.97;26.48;;;;;;;9.09;75.65;98390.84;4879008;29;20036;-69
2021/05/01 07:46:15;;;;;;;33.20;23.92;;;;;;;8.97;74.78;98392.78;4879017;29;20505;-69
2021/05/01 07:48:41;;;;;;;36.63;26.50;;;;;;;8.98;75.29;98394.47;4878933;29;20037;-69
2021/05/01 07:51:07;;;;;;;38.78;26.60;;;;;;;9.05;75.69;98389.22;4878831;29;20050;-69
2021/05/01 07:53:33;;;;;;;36.20;25.55;;;;;;;9.20;75.21;98388.94;4878991;29;20104;-69
2021/05/01 07:56:00;;;;;;;33.60;24.92;;;;;;;9.52;75.01;98386.59;4878962;29;20177;-69
2021/05/01 07:58:25;;;;;;;35.35;26.17;;;;;;;9.53;73.75;98398.63;4878783;29;20065;-69
2021/05/01 08:00:51;;;;;;;32.60;24.55;;;;;;;9.48;74.79;98405.63;4878640;29;20111;-69
2021/05/01 08:03:16;;;;;;;33.03;24.90;;;;;;;9.74;73.88;98391.31;4878810;29;20032;-69
2021/05/01 08:05:42;;;;;;;31.90;23.55;;;;;;;9.89;73.70;98383.22;4878781;29;20029;-69
2021/05/01 08:08:07;;;;;;;32.85;24.40;;;;;;;10.02;75.48;98397.59;4878666;29;20031;-69
2021/05/01 08:10:33;;;;;;;33.03;23.58;;;;;;;9.89;71.90;98396.16;4878508;29;20040;-69
2021/05/01 08:12:58;;;;;;;29.77;22.83;;;;;;;9.27;73.86;98403.44;4878738;29;20028;-69
2021/05/01 08:15:28;;;;;;;32.92;22.95;;;;;;;9.40;74.79;98384.22;4878383;29;20475;-69
2021/05/01 08:17:54;;;;;;;34.40;23.33;;;;;;;9.73;73.49;98374.94;4878144;29;20024;-69
2021/05/01 08:20:19;;;;;;;31.20;23.30;;;;;;;9.93;73.61;98378.84;4878361;29;20032;-69
2021/05/01 08:22:44;;;;;;;35.20;23.95;;;;;;;9.55;73.68;98395.16;4878629;29;20033;-69
2021/05/01 08:25:12;;;;;;;32.35;24.58;;;;;;;9.82;73.79;98389.41;4878466;29;20062;-69
2021/05/01 08:27:38;;;;;;;34.03;23.42;;;;;;;9.76;73.18;98392.13;4878498;29;20032;-69
2021/05/01 08:30:06;;;;;;;36.70;23.52;;;;;;;9.81;72.41;98392.03;4878097;29;20032;-69
2021/05/01 08:32:31;;;;;;;33.20;23.30;;;;;;;9.84;73.66;98395.41;4878432;29;20513;-69
2021/05/01 08:34:57;;;;;;;30.13;21.48;;;;;;;9.89;72.46;98405.66;4878418;29;20115;-69
2021/05/01 08:37:22;;;;;;;32.42;22.65;;;;;;;9.79;71.41;98410.16;4878424;29;20501;-69
2021/05/01 08:39:47;;;;;;;28.80;22.75;;;;;;;9.58;76.03;98402.88;4878159;29;20057;-69
2021/05/01 08:42:13;;;;;;;34.10;24.20;;;;;;;9.68;76.68;98406.97;4878335;29;20048;-69
2021/05/01 08:44:38;;;;;;;32.90;24.30;;;;;;;9.66;77.03;98401.81;4878022;29;20036;-69
2021/05/01 08:47:05;;;;;;;35.80;25.35;;;;;;;9.84;75.70;98392.81;4878293;29;20516;-69
2021/05/01 08:49:31;;;;;;;36.28;24.67;;;;;;;9.84;76.17;98398.00;4878091;29;20029;-69
2021/05/01 08:51:58;;;;;;;33.92;23.60;;;;;;;9.64;75.92;98407.91;4878101;29;20530;-69
2021/05/01 08:54:23;;;;;;;35.13;25.60;;;;;;;9.52;77.04;98402.09;4878058;29;20025;-69
2021/05/01 08:56:49;;;;;;;31.20;23.75;;;;;;;9.93;74.80;98400.38;4878245;29;20029;-69
2021/05/01 08:59:15;;;;;;;31.60;24.25;;;;;;;9.83;76.14;98404.06;4877964;29;20024;-69
2021/05/01 09:01:40;;;;;;;31.17;23.85;;;;;;;10.03;75.44;98399.28;4877969;29;20115;-69
2021/05/01 09:04:08;;;;;;;36.78;23.55;;;;;;;10.37;72.60;98397.72;4877980;29;20037;-70
2021/05/01 09:06:34;;;;;;;30.98;22.55;;;;;;;10.49;71.74;98395.72;4878126;29;20088;-69
2021/05/01 09:09:04;;;;;;;32.05;24.42;;;;;;;10.33;72.42;98391.75;4877933;29;20029;-69
2021/05/01 09:11:34;;;;;;;33.42;23.75;;;;;;;10.16;73.74;98396.44;4877916;29;20039;-69
2021/05/01 09:13:59;;;;;;;30.05;23.40;;;;;;;10.28;74.90;98409.97;4876458;29;20419;-70
2021/05/01 09:16:25;;;;;;;32.08;23.25;;;;;;;9.94;73.52;98399.50;4878134;29;20084;-70
2021/05/01 09:18:58;;;;;;;34.22;24.90;;;;;;;9.99;73.70;98402.84;4878021;29;20116;-70
2021/05/01 09:21:30;;;;;;;34.78;25.15;;;;;;;10.05;74.39;98394.91;4876837;29;20100;-69
2021/05/01 09:23:57;;;;;;;36.95;25.88;;;;;;;10.72;72.40;98394.28;4877837;29;20025;-69
2021/05/01 09:26:40;;;;;;;32.88;23.88;;;;;;;11.06;70.05;98400.28;4877804;29;20061;-69
2021/05/01 09:29:06;;;;;;;31.80;23.27;;;;;;;11.53;69.56;98399.91;4880213;29;20044;-69
2021/05/01 09:32:00;;;;;;;27.70;22.63;;;;;;;11.96;70.41;98394.38;4881353;29;20033;-69
2021/05/01 09:34:53;;;;;;;39.40;25.52;;;;;;;12.14;66.48;98402.53;4881583;29;20163;-70
2021/05/01 09:37:21;;;;;;;39.08;24.55;;;;;;;10.81;69.06;98409.59;4881407;29;20060;-71
2021/05/01 09:39:52;;;;;;;28.80;21.83;;;;;;;10.97;68.29;98405.72;4879862;29;20073;-68
2021/05/01 09:42:21;;;;;;;29.35;22.73;;;;;;;11.29;65.70;98391.06;4881297;29;20144;-68
2021/05/01 09:44:47;;;;;;;29.98;22.23;;;;;;;10.72;68.23;98383.91;4881031;29;20053;-68
2021/05/01 09:47:16;;;;;;;27.20;20.67;;;;;;;11.56;65.87;98369.56;4881155;29;20052;-69
2021/05/01 09:49:48;;;;;;;27.92;19.15;;;;;;;12.13;65.07;98361.84;4880887;29;20037;-69
2021/05/01 09:52:15;;;;;;;32.85;22.08;;;;;;;12.41;63.76;98365.28;4881129;29;20036;-69
2021/05/01 09:54:45;;;;;;;34.58;24.27;;;;;;;12.06;64.08;98364.63;4881020;29;20427;-71
2021/05/01 09:57:15;;;;;;;34.33;24.25;;;;;;;11.88;68.18;98370.38;4880995;29;20475;-71
2021/05/01 09:59:52;;;;;;;32.70;23.85;;;;;;;11.83;68.00;98362.72;4880727;29;20451;-71
2021/05/01 10:02:24;;;;;;;31.33;23.27;;;;;;;11.58;65.28;98347.00;4880847;29;20021;-68
2021/05/01 10:05:06;;;;;;;35.55;26.02;;;;;;;11.51;69.89;98349.84;4880818;29;20032;-68
2021/05/01 10:07:35;;;;;;;30.70;23.23;;;;;;;11.54;65.76;98360.94;4880856;29;20027;-69
2021/05/01 10:10:03;;;;;;;35.78;24.23;;;;;;;11.40;66.88;98363.09;4874742;29;20029;-69
2021/05/01 10:12:34;;;;;;;33.33;24.40;;;;;;;11.05;68.46;98356.28;4882316;29;20069;-69
2021/05/01 10:15:02;;;;;;;35.58;26.15;;;;;;;10.85;70.65;98351.63;4880991;29;20029;-69
2021/05/01 10:17:28;;;;;;;34.28;25.33;;;;;;;10.98;71.59;98350.41;4880446;29;20420;-69
2021/05/01 10:20:03;;;;;;;35.25;24.05;;;;;;;11.07;68.96;98357.94;4880279;29;20029;-69
2021/05/01 10:22:40;;;;;;;34.97;26.17;;;;;;;11.00;68.92;98356.41;4880271;29;20032;-68
2021/05/01 10:25:26;;;;;;;31.90;24.35;;;;;;;11.15;69.42;98354.28;4880289;29;20037;-70
2021/05/01 10:28:07;;;;;;;35.38;24.55;;;;;;;11.36;67.82;98351.09;4880240;29;20049;-69
2021/05/01 10:30:50;;;;;;;38.90;25.88;;;;;;;11.36;68.96;98345.91;4880030;29;20079;-70
2021/05/01 10:33:23;;;;;;;39.47;28.20;;;;;;;10.98;70.37;98345.22;4879228;29;20033;-70
2021/05/01 10:36:00;;;;;;;30.50;24.63;;;;;;;11.32;69.73;98339.13;4880188;29;20031;-70
2021/05/01 10:38:26;;;;;;;31.45;23.65;;;;;;;11.55;67.34;98343.63;4879988;29;20462;-69
2021/05/01 10:40:57;;;;;;;38.00;26.58;;;;;;;11.65;69.25;98346.81;4879130;29;20096;-69
2021/05/01 10:43:25;;;;;;;36.20;26.70;;;;;;;11.17;69.07;98357.69;4879934;29;20453;-69
2021/05/01 10:46:06;;;;;;;34.10;24.00;;;;;;;11.18;69.08;98357.66;4880137;29;20085;-69
2021/05/01 10:48:34;;;;;;;42.58;27.35;;;;;;;10.57;71.45;98353.22;4879954;29;20029;-69
2021/05/01 10:51:03;;;;;;;40.95;25.10;;;;;;;10.40;72.15;98349.31;4849930;29;20044;-69
2021/05/01 10:53:28;;;;;;;32.00;24.13;;;;;;;10.91;70.33;98343.69;4909523;29;20563;-70
2021/05/01 10:55:55;;;;;;;36.53;25.10;;;;;;;10.87;72.84;98342.03;4902131;29;20040;-70
2021/05/01 10:58:38;;;;;;;32.75;25.05;;;;;;;11.05;68.57;98341.56;4897849;29;20029;-69
2021/05/01 11:01:06;;;;;;;47.67;32.83;;;;;;;11.25;70.22;98345.34;4897909;29;20031;-75
2021/05/01 11:03:41;;;;;;;33.33;24.70;;;;;;;11.43;68.33;98338.81;4898382;29;20072;-69
2021/05/01 11:06:08;;;;;;;33.83;23.95;;;;;;;11.18;70.21;98346.44;4897178;29;20025;-69
2021/05/01 11:09:02;;;;;;;33.00;23.30;;;;;;;11.23;70.10;98344.56;4878477;29;20027;-71
2021/05/01 11:11:32;;;;;;;31.77;23.10;;;;;;;11.28;69.22;98340.09;4890666;29;20068;-71
2021/05/01 11:14:08;;;;;;;34.40;23.25;;;;;;;11.09;70.30;98342.34;4898033;29;20060;-69
2021/05/01 11:16:43;;;;;;;31.52;23.70;;;;;;;11.13;70.41;98337.94;4876271;29;20501;-69
2021/05/01 11:19:12;;;;;;;37.45;25.08;;;;;;;11.16;70.20;98337.84;4807174;29;20041;-69
2021/05/01 11:21:42;;;;;;;44.67;26.40;;;;;;;10.97;71.92;98338.31;4861440;29;20039;-69
2021/05/01 11:24:10;;;;;;;42.17;25.75;;;;;;;11.09;71.21;98329.38;4905998;29;20083;-69
2021/05/01 11:26:35;;;;;;;43.28;23.80;;;;;;;11.34;69.35;98326.94;4788125;29;20096;-69
2021/05/01 11:29:02;;;;;;;38.42;23.67;;;;;;;11.70;69.50;98329.34;4793832;29;20037;-69
2021/05/01 11:31:27;;;;;;;33.38;21.98;;;;;;;11.58;67.77;98328.00;4843730;29;20072;-69
2021/05/01 11:33:57;;;;;;;34.53;24.00;;;;;;;11.11;69.01;98339.69;4850061;29;20116;-78
2021/05/01 11:36:26;;;;;;;31.13;24.27;;;;;;;10.37;71.93;98346.78;4897760;29;20103;-72
2021/05/01 11:38:52;;;;;;;40.40;26.30;;;;;;;10.57;71.30;98340.25;4897821;29;20063;-72
2021/05/01 11:41:17;;;;;;;41.50;26.67;;;;;;;10.59;71.89;98346.22;4911980;29;20051;-70
2021/05/01 11:43:44;;;;;;;34.80;24.25;;;;;;;10.92;71.56;98345.38;4897506;29;20025;-71
2021/05/01 11:46:20;;;;;;;39.20;25.58;;;;;;;10.94;72.18;98333.25;4897576;29;20084;-71
2021/05/01 11:49:06;;;;;;;38.22;24.58;;;;;;;11.00;70.27;98332.22;4849955;29;20040;-70
2021/05/01 11:51:50;;;;;;;36.65;23.98;;;;;;;11.78;68.36;98327.41;4904105;29;20497;-70
2021/05/01 11:54:44;;;;;;;41.70;25.67;;;;;;;11.86;68.13;98330.66;4902779;29;20032;-70
2021/05/01 11:57:13;;;;;;;32.20;24.02;;;;;;;11.76;67.60;98324.00;4901245;29;20036;-70
2021/05/01 11:59:46;;;;;;;42.58;27.88;;;;;;;12.02;68.68;98321.47;4908173;29;20024;-70
2021/05/01 12:02:14;;;;;;;35.28;23.77;;;;;;;11.60;69.17;98310.63;4899945;29;20084;-70
2021/05/01 12:04:46;;;;;;;31.63;24.27;;;;;;;13.13;66.30;98297.84;4907703;29;20423;-71
2021/05/01 12:07:17;;;;;;;30.77;23.08;;;;;;;12.86;65.07;98310.06;4907885;29;20036;-70
2021/05/01 12:09:44;;;;;;;30.00;22.50;;;;;;;13.45;62.82;98304.50;4896964;29;20443;-69
2021/05/01 12:12:11;;;;;;;25.98;21.27;;;;;;;13.48;61.18;98301.78;4897100;29;20108;-70
2021/05/01 12:14:37;;;;;;;30.30;23.10;;;;;;;13.37;62.29;98296.13;4896909;29;20037;-72
2021/05/01 12:17:12;;;;;;;35.33;24.58;;;;;;;13.61;61.76;98292.59;4896988;29;20514;-69
2021/05/01 12:19:44;;;;;;;31.70;23.05;;;;;;;13.59;61.01;98291.81;4896863;29;20020;-69
2021/05/01 12:22:23;;;;;;;35.72;27.35;;;;;;;13.25;63.68;98286.19;4896810;29;20516;-68
2021/05/01 12:24:49;;;;;;;39.20;26.02;;;;;;;12.38;66.97;98300.44;4801538;29;20108;-68
2021/05/01 12:27:51;;;;;;;30.08;24.52;;;;;;;12.26;64.94;98295.63;4847061;29;20462;-69
2021/05/01 12:30:43;;;;;;;33.80;24.63;;;;;;;11.49;66.92;98305.75;4896004;29;20072;-68
2021/05/01 12:33:21;;;;;;;33.65;23.67;;;;;;;12.24;63.68;98294.84;4896549;29;20558;-68
2021/05/01 12:35:46;;;;;;;31.85;22.92;;;;;;;12.55;63.67;98279.91;4896740;29;20040;-69
2021/05/01 12:38:13;;;;;;;37.00;23.80;;;;;;;12.56;65.65;98286.81;4896555;29;20032;-69
2021/05/01 12:40:39;;;;;;;31.73;23.35;;;;;;;12.68;63.26;98284.72;4896619;29;20076;-69
2021/05/01 12:43:29;;;;;;;30.80;23.27;;;;;;;12.79;63.51;98282.59;4896657;29;20041;-69
2021/05/01 12:45:56;;;;;;;30.15;21.98;;;;;;;13.33;62.21;98276.31;4842574;29;20029;-69
2021/05/01 12:48:51;;;;;;;29.33;21.17;;;;;;;13.16;61.79;98265.69;4895084;29;20442;-69
2021/05/01 12:51:22;;;;;;;28.20;22.45;;;;;;;13.39;63.00;98263.06;4896102;29;20073;-69
2021/05/01 12:53:49;;;;;;;28.52;23.17;;;;;;;12.57;65.57;98261.66;4896550;29;20120;-69
2021/05/01 12:56:34;;;;;;;36.03;25.80;;;;;;;11.16;68.82;98273.84;4850946;29;20048;-69
2021/05/01 12:59:21;;;;;;;32.05;24.63;;;;;;;11.38;69.25;98266.31;4884514;29;20402;-69
2021/05/01 13:02:36;;;;;;;37.78;26.17;;;;;;;11.61;68.81;98267.38;4896604;29;20044;-69
2021/05/01 13:05:28;;;;;;;36.15;25.25;;;;;;;11.54;67.67;98262.34;4888807;29;20068;-69
2021/05/01 13:07:54;;;;;;;32.45;25.45;;;;;;;11.22;69.92;98265.06;4900154;29;20036;-69
2021/05/01 13:10:21;;;;;;;32.08;24.77;;;;;;;11.09;69.22;98271.50;4854671;29;20048;-69
2021/05/01 13:13:02;;;;;;;34.28;25.95;;;;;;;10.65;71.31;98273.56;4900338;29;20553;-69
2021/05/01 13:15:29;;;;;;;36.35;26.10;;;;;;;11.29;70.09;98262.25;4900528;29;20028;-69
2021/05/01 13:18:21;;;;;;;38.30;25.52;;;;;;;11.19;70.50;98258.22;4900024;29;20080;-69
2021/05/01 13:21:02;;;;;;;36.20;25.52;;;;;;;11.66;68.53;98255.13;4886165;29;20104;-69
2021/05/01 13:23:37;;;;;;;35.97;23.70;;;;;;;11.67;68.05;98251.63;4900055;29;20032;-69
2021/05/01 13:26:04;;;;;;;31.70;22.90;;;;;;;11.57;68.27;98257.09;4899239;29;20099;-69
2021/05/01 13:28:31;;;;;;;32.13;22.55;;;;;;;11.42;68.66;98254.97;4914411;29;20484;-69
2021/05/01 13:30:56;;;;;;;32.22;23.13;;;;;;;11.40;68.28;98256.72;4898591;29;20041;-69
2021/05/01 13:33:22;;;;;;;33.40;22.95;;;;;;;11.16;68.90;98254.84;4899867;29;20052;-69
2021/05/01 13:35:49;;;;;;;31.67;23.60;;;;;;;11.12;69.08;98254.13;4899962;29;20031;-69
2021/05/01 13:38:14;;;;;;;32.10;23.35;;;;;;;11.10;68.38;98257.63;4899869;29;20024;-69
2021/05/01 13:40:42;;;;;;;33.80;23.02;;;;;;;11.01;69.22;98248.38;4899746;29;20040;-69
2021/05/01 13:43:10;;;;;;;32.30;23.42;;;;;;;10.89;69.70;98244.38;4899987;29;20111;-69
2021/05/01 13:45:46;;;;;;;32.83;24.13;;;;;;;10.98;71.30;98236.34;4899653;29;20107;-69
2021/05/01 13:48:12;;;;;;;31.67;22.52;;;;;;;11.20;71.21;98233.13;4899710;29;20406;-69
2021/05/01 13:50:46;;;;;;;30.60;22.92;;;;;;;11.31;69.55;98226.75;4899184;29;20092;-69
2021/05/01 13:53:18;;;;;;;33.08;22.90;;;;;;;11.53;69.20;98219.16;4899673;29;20036;-69
2021/05/01 13:55:45;;;;;;;35.70;24.15;;;;;;;10.90;70.39;98222.75;4899677;29;20052;-69
2021/05/01 13:58:13;;;;;;;33.83;23.65;;;;;;;10.95;72.32;98222.63;4899549;29;20494;-69
2021/05/01 14:00:45;;;;;;;36.13;24.48;;;;;;;10.81;73.09;98217.81;4853862;29;20125;-69
2021/05/01 14:03:14;;;;;;;31.50;23.67;;;;;;;11.12;72.65;98203.97;4899573;29;20025;-69
2021/05/01 14:05:40;;;;;;;31.42;23.48;;;;;;;11.51;71.23;98200.19;4899106;29;20052;-69
2021/05/01 14:08:05;;;;;;;31.50;23.40;;;;;;;11.57;69.94;98202.59;4897987;29;20411;-69
2021/05/01 14:10:32;;;;;;;31.30;23.05;;;;;;;11.68;69.20;98204.00;4898908;29;20024;-69
2021/05/01 14:12:59;;;;;;;31.27;23.85;;;;;;;11.94;68.34;98198.88;4899326;29;20039;-69
2021/05/01 14:15:27;;;;;;;35.08;24.45;;;;;;;12.02;68.70;98207.22;4897731;29;20028;-69
2021/05/01 14:18:04;;;;;;;29.67;23.13;;;;;;;11.75;68.97;98205.53;4899149;29;20060;-69
2021/05/01 14:20:30;;;;;;;30.45;22.67;;;;;;;11.70;69.05;98205.66;4899041;29;20028;-69
2021/05/01 14:22:56;;;;;;;51.38;34.33;;;;;;;11.75;68.49;98197.75;4913514;29;20028;-69
2021/05/01 14:25:22;;;;;;;30.35;23.67;;;;;;;10.68;72.81;98206.09;4898790;29;20085;-69
2021/05/01 14:27:50;;;;;;;31.00;22.50;;;;;;;10.86;71.73;98210.78;4896493;29;20164;-70
2021/05/01 14:30:40;;;;;;;35.65;24.13;;;;;;;11.44;70.84;98203.88;4898115;29;20025;-70
2021/05/01 14:33:07;;;;;;;34.40;22.98;;;;;;;11.29;72.64;98202.59;4898784;29;20033;-70
2021/05/01 14:35:34;;;;;;;32.72;23.02;;;;;;;11.22;71.87;98197.66;4898059;29;20064;-70
2021/05/01 14:38:00;;;;;;;28.58;21.92;;;;;;;11.49;71.61;98201.97;4891683;29;20024;-70
2021/05/01 14:40:26;;;;;;;35.22;24.88;;;;;;;11.39;70.35;98199.72;4898348;29;20525;-70
2021/05/01 14:42:54;;;;;;;50.38;35.33;;;;;;;11.20;70.06;98196.84;4898769;29;20040;-70
2021/05/01 14:45:23;;;;;;;28.15;22.70;;;;;;;11.20;73.02;98191.66;4899959;29;20152;-70
2021/05/01 14:47:48;;;;;;;30.40;22.25;;;;;;;11.19;71.35;98189.94;4911966;29;20020;-70
2021/05/01 14:50:31;;;;;;;32.08;22.90;;;;;;;10.98;72.36;98189.69;4898292;29;20033;-70
2021/05/01 14:53:17;;;;;;;32.53;23.65;;;;;;;11.10;73.36;98191.06;4913025;29;20033;-70
2021/05/01 14:55:45;;;;;;;37.38;26.85;;;;;;;11.11;73.12;98194.50;4898298;29;20032;-70
2021/05/01 14:58:34;;;;;;;31.20;23.55;;;;;;;10.85;76.06;98190.94;4898563;29;20028;-70
2021/05/01 15:01:00;;;;;;;34.25;24.10;;;;;;;10.78;76.65;98194.59;4898295;29;20099;-70
2021/05/01 15:03:30;;;;;;;36.55;23.90;;;;;;;10.63;78.38;98187.25;4898525;29;20054;-71
2021/05/01 15:05:55;;;;;;;34.08;24.67;;;;;;;10.84;79.08;98181.47;4850393;29;20092;-70
2021/05/01 15:08:21;;;;;;;31.73;24.40;;;;;;;10.74;77.77;98182.63;4898433;29;20032;-70
2021/05/01 15:10:47;;;;;;;42.28;28.33;;;;;;;10.40;80.41;98186.16;4897973;29;20020;-70
2021/05/01 15:13:12;;;;;;;32.55;24.55;;;;;;;10.54;79.99;98189.22;4898430;29;20040;-70
2021/05/01 15:15:54;;;;;;;35.95;25.73;;;;;;;10.60;80.42;98187.34;4897914;29;20044;-70
2021/05/01 15:18:23;;;;;;;38.47;26.40;;;;;;;10.64;80.51;98182.03;4898036;29;20028;-70
2021/05/01 15:20:53;;;;;;;46.10;30.75;;;;;;;10.47;80.66;98187.66;4897892;29;20052;-72
2021/05/01 15:23:39;;;;;;;36.38;25.48;;;;;;;10.51;80.37;98184.09;4898229;29;20040;-70
2021/05/01 15:26:07;;;;;;;36.20;25.88;;;;;;;10.39;81.04;98184.41;4897382;29;20047;-69
2021/05/01 15:28:34;;;;;;;38.38;27.50;;;;;;;10.34;82.24;98175.09;4898005;29;20079;-70
2021/05/01 15:31:02;;;;;;;36.83;26.38;;;;;;;10.20;83.97;98181.47;4892704;29;20032;-70
2021/05/01 15:33:30;;;;;;;36.30;26.23;;;;;;;10.21;84.89;98175.38;4889403;29;20036;-70
2021/05/01 15:36:00;;;;;;;35.10;25.63;;;;;;;10.23;82.80;98177.94;4887690;29;20036;-70
2021/05/01 15:38:27;;;;;;;34.97;26.42;;;;;;;10.28;83.47;98165.75;4884508;29;20175;-70
2021/05/01 15:40:53;;;;;;;35.22;25.90;;;;;;;10.17;83.81;98172.91;4889157;29;20031;-70
2021/05/01 15:43:20;;;;;;;40.83;28.40;;;;;;;10.10;86.64;98166.19;4883483;29;20056;-70
2021/05/01 15:45:47;;;;;;;37.15;26.63;;;;;;;10.16;85.87;98166.06;4888223;29;20479;-70
2021/05/01 15:48:12;;;;;;;40.60;30.42;;;;;;;9.81;88.28;98165.19;4884644;29;20043;-70
2021/05/01 15:50:39;;;;;;;37.95;28.15;;;;;;;10.24;86.08;98158.94;4888382;29;20036;-70
2021/05/01 15:53:10;;;;;;;38.83;29.73;;;;;;;10.39;85.75;98158.53;4889339;29;20036;-70
2021/05/01 15:55:36;;;;;;;41.90;28.60;;;;;;;10.36;85.67;98150.88;4888347;29;20402;-69
2021/05/01 15:58:03;;;;;;;39.58;27.92;;;;;;;10.32;85.29;98153.56;4889039;29;20095;-70
2021/05/01 16:00:29;;;;;;;48.63;33.97;;;;;;;10.17;85.67;98158.22;4888997;29;20522;-69
2021/05/01 16:02:55;;;;;;;55.22;39.28;;;;;;;10.23;86.41;98152.88;4889016;29;20115;-69
2021/05/01 16:05:22;;;;;;;48.72;33.00;;;;;;;10.27;85.59;98156.28;4888714;29;20412;-69
2021/05/01 16:07:48;;;;;;;54.42;35.05;;;;;;;10.20;86.08;98162.47;4884070;29;20039;-69
2021/05/01 16:10:18;;;;;;;45.47;32.83;;;;;;;10.14;86.11;98153.13;4886454;29;20037;-69
2021/05/01 16:12:44;;;;;;;54.97;40.80;;;;;;;10.09;87.85;98159.31;4888364;29;20044;-70
2021/05/01 16:15:12;;;;;;;49.90;35.35;;;;;;;10.41;86.41;98149.00;4884893;29;20036;-70
2021/05/01 16:17:38;;;;;;;92.47;62.42;;;;;;;10.32;85.68;98157.00;4885550;29;20028;-70
2021/05/01 16:20:05;;;;;;;67.53;47.25;;;;;;;10.29;85.89;98162.25;4886953;29;20039;-70
2021/05/01 16:22:30;;;;;;;48.95;34.63;;;;;;;10.24;87.68;98161.53;4888662;29;20063;-70
2021/05/01 16:24:56;;;;;;;47.97;32.05;;;;;;;10.28;86.87;98160.56;4876565;29;20165;-70
2021/05/01 16:27:21;;;;;;;43.95;31.77;;;;;;;10.29;86.37;98157.06;4883220;29;20068;-69
2021/05/01 16:29:47;;;;;;;46.00;31.70;;;;;;;10.23;86.71;98159.81;4838860;29;20061;-69
2021/05/01 16:32:12;;;;;;;60.88;41.28;;;;;;;10.37;86.72;98160.31;4888409;29;20052;-70
2021/05/01 16:34:38;;;;;;;49.67;33.80;;;;;;;10.25;86.91;98171.00;4883581;29;20493;-69
2021/05/01 16:37:04;;;;;;;44.67;33.85;;;;;;;10.07;87.16;98167.13;4883856;29;20328;-69
2021/05/01 16:39:30;;;;;;;44.15;32.22;;;;;;;10.02;86.36;98164.66;4887226;29;20028;-70
2021/05/01 16:41:57;;;;;;;50.85;34.05;;;;;;;9.99;87.56;98169.06;4883728;29;20084;-70
2021/05/01 16:44:24;;;;;;;56.78;37.28;;;;;;;9.87;87.71;98170.22;4886790;29;20028;-70
2021/05/01 16:46:49;;;;;;;56.50;36.35;;;;;;;9.88;87.66;98171.91;4883635;29;20430;-69
2021/05/01 16:49:14;;;;;;;55.10;33.92;;;;;;;9.81;87.44;98166.94;4888214;29;20173;-69
2021/05/01 16:51:40;;;;;;;51.30;35.42;;;;;;;9.83;88.24;98168.59;4883405;29;20059;-70
2021/05/01 16:54:06;;;;;;;54.83;35.67;;;;;;;9.84;88.31;98165.13;4883995;29;20058;-69
2021/05/01 16:56:31;;;;;;;50.58;34.83;;;;;;;9.90;87.41;98167.53;4888309;29;20189;-69
2021/05/01 16:58:57;;;;;;;49.85;36.10;;;;;;;9.74;88.87;98174.00;4888251;29;20060;-69
2021/05/01 17:01:24;;;;;;;52.75;35.30;;;;;;;9.86;88.70;98168.50;4882223;29;20040;-69
2021/05/01 17:03:50;;;;;;;49.83;35.83;;;;;;;9.76;88.26;98169.63;4879958;29;20032;-69
2021/05/01 17:06:17;;;;;;;55.33;37.45;;;;;;;9.63;89.75;98170.84;4894736;29;20033;-69
2021/05/01 17:08:42;;;;;;;55.53;36.80;;;;;;;9.64;90.56;98169.94;4894667;29;20602;-70
2021/05/01 17:11:07;;;;;;;53.30;36.17;;;;;;;9.84;89.51;98167.72;4894524;29;20021;-69
2021/05/01 17:13:33;;;;;;;57.50;38.80;;;;;;;9.81;89.83;98170.34;4894984;29;20103;-69
2021/05/01 17:15:59;;;;;;;54.13;38.05;;;;;;;9.73;89.21;98172.31;4895172;29;20040;-69
2021/05/01 17:18:24;;;;;;;50.33;36.63;;;;;;;9.57;89.78;98171.81;4896592;29;20570;-69
2021/05/01 17:20:50;;;;;;;52.25;37.00;;;;;;;9.55;90.92;98177.91;4895989;29;20061;-69
2021/05/01 17:23:15;;;;;;;58.15;38.92;;;;;;;9.51;92.25;98172.81;4892010;29;20084;-69
2021/05/01 17:25:41;;;;;;;57.05;39.72;;;;;;;9.49;92.05;98176.31;4895316;29;20028;-70
2021/05/01 17:28:06;;;;;;;55.63;39.63;;;;;;;9.48;92.95;98180.66;4846978;29;20048;-69
2021/05/01 17:30:32;;;;;;;59.22;38.75;;;;;;;9.44;92.56;98171.25;4889805;29;20045;-69
2021/05/01 17:32:57;;;;;;;57.38;41.58;;;;;;;9.30;92.79;98168.13;4901259;29;20029;-69
2021/05/01 17:35:24;;;;;;;64.60;40.63;;;;;;;9.37;93.40;98174.84;4896216;29;20060;-70
2021/05/01 17:37:50;;;;;;;64.38;42.38;;;;;;;9.36;93.37;98173.16;4897458;29;20036;-70
2021/05/01 17:40:16;;;;;;;65.07;43.30;;;;;;;9.33;93.83;98168.09;4907132;29;20019;-69
2021/05/01 17:42:42;;;;;;;60.75;41.63;;;;;;;9.40;93.90;98164.47;4849618;29;20068;-70
2021/05/01 17:45:10;;;;;;;65.43;43.63;;;;;;;9.29;94.28;98169.03;4886042;29;20028;-69
2021/05/01 17:47:36;;;;;;;62.63;43.00;;;;;;;9.27;94.52;98173.38;4887672;29;20494;-69
2021/05/01 17:50:03;;;;;;;59.78;41.45;;;;;;;9.46;94.29;98169.47;4888508;29;20088;-69
2021/05/01 17:52:29;;;;;;;62.88;41.65;;;;;;;9.50;93.93;98172.84;4887730;29;20036;-70
2021/05/01 17:54:54;;;;;;;63.42;40.88;;;;;;;9.31;93.24;98171.56;4891183;29;20032;-69
2021/05/01 17:57:19;;;;;;;60.85;42.15;;;;;;;9.37;93.83;98169.69;4891269;29;20032;-70
2021/05/01 17:59:45;;;;;;;62.42;42.70;;;;;;;9.22;93.68;98168.28;4884900;29;20037;-70
2021/05/01 18:02:11;;;;;;;64.95;44.40;;;;;;;9.27;94.62;98173.38;4884095;29;20032;-69
2021/05/01 18:04:36;;;;;;;63.05;42.30;;;;;;;9.35;94.68;98174.06;4887046;29;20127;-69
2021/05/01 18:07:03;;;;;;;66.07;42.67;;;;;;;9.20;93.77;98166.66;4889293;29;20120;-69
2021/05/01 18:09:28;;;;;;;71.85;46.33;;;;;;;9.13;95.15;98171.09;4889264;29;20080;-69
2021/05/01 18:11:53;;;;;;;69.28;43.47;;;;;;;9.06;95.37;98168.69;4888519;29;20120;-69
2021/05/01 18:14:19;;;;;;;69.13;44.00;;;;;;;9.00;95.44;98169.66;4883269;29;20039;-69
2021/05/01 18:16:44;;;;;;;74.70;45.97;;;;;;;8.90;95.71;98179.34;4890319;29;20087;-69
2021/05/01 18:19:11;;;;;;;71.78;44.47;;;;;;;8.94;96.16;98175.78;4891004;29;20501;-69
2021/05/01 18:21:37;;;;;;;78.57;48.83;;;;;;;9.01;97.19;98173.94;4890722;29;20039;-69
2021/05/01 18:24:03;;;;;;;76.70;47.70;;;;;;;8.94;97.21;98186.13;4890792;29;20040;-70
2021/05/01 18:26:29;;;;;;;73.60;47.85;;;;;;;8.96;97.48;98180.94;4888701;29;20119;-69
2021/05/01 18:28:56;;;;;;;80.18;49.60;;;;;;;8.94;97.31;98170.63;4889245;29;20071;-69
2021/05/01 18:31:21;;;;;;;73.85;47.63;;;;;;;9.05;96.97;98173.00;4884722;29;20660;-69